Time;durP1;ratioP1;P1;durP2;ratioP2;P2;SDS_P1;SDS_P2;PMS_P1;PMS_P2;Temp;Humidity;BMP_temperature;BMP_pressure;BME280_temperature;BME280_humidity;BME280_pressure;Samples;Min_cycle;Max_cycle;Signal;HPM_P1;HPM_P2
2022/08/28 00:00:55;;;;;;;11.10;6.10;;;;;;;23.25;84.67;99748.81;5033736;28;20045;-75
2022/08/28 00:03:23;;;;;;;14.60;6.10;;;;;;;23.52;83.63;99741.88;5016174;28;20053;-75
2022/08/28 00:05:51;;;;;;;12.02;5.90;;;;;;;23.70;82.20;99728.78;5015614;28;20056;-75
2022/08/28 00:08:20;;;;;;;11.70;5.40;;;;;;;23.76;81.58;99725.31;5033553;28;20045;-75
2022/08/28 00:10:49;;;;;;;9.27;5.32;;;;;;;23.86;80.63;99736.75;5015746;28;20053;-74
2022/08/28 00:13:20;;;;;;;12.52;5.68;;;;;;;23.87;80.47;99743.88;5033611;28;20051;-75
2022/08/28 00:15:51;;;;;;;12.10;5.30;;;;;;;24.13;78.58;99742.50;5015633;28;20053;-75
2022/08/28 00:18:21;;;;;;;9.50;5.68;;;;;;;24.11;79.11;99739.97;5033683;28;20037;-75
2022/08/28 00:20:51;;;;;;;11.93;5.70;;;;;;;24.13;79.44;99739.78;5032976;28;20530;-75
2022/08/28 00:23:21;;;;;;;14.93;5.35;;;;;;;24.47;76.83;99750.03;5033605;28;20128;-75
2022/08/28 00:25:49;;;;;;;10.07;5.50;;;;;;;24.32;77.98;99725.56;5033000;28;20076;-75
2022/08/28 00:28:16;;;;;;;12.70;5.93;;;;;;;24.25;80.34;99725.47;5032989;28;20473;-75
2022/08/28 00:30:53;;;;;;;11.02;5.80;;;;;;;24.08;84.85;99736.78;5033067;28;20073;-75
2022/08/28 00:33:26;;;;;;;10.70;5.30;;;;;;;23.97;89.41;99728.06;5033189;28;20041;-75
2022/08/28 00:35:55;;;;;;;12.83;6.03;;;;;;;23.92;90.66;99727.78;5033080;28;20470;-75
2022/08/28 00:38:26;;;;;;;16.50;5.82;;;;;;;23.79;94.08;99741.25;5033199;28;20038;-75
2022/08/28 00:40:58;;;;;;;10.98;5.30;;;;;;;23.69;96.12;99741.53;5032938;28;20046;-75
2022/08/28 00:43:35;;;;;;;10.90;5.57;;;;;;;23.63;97.81;99749.63;5033159;28;20065;-75
2022/08/28 00:46:09;;;;;;;17.45;5.85;;;;;;;23.48;100.00;99754.19;5032925;28;20498;-75
2022/08/28 00:48:38;;;;;;;8.18;5.60;;;;;;;23.37;100.00;99761.81;5032912;28;20148;-75
2022/08/28 00:53:57;;;;;;;13.93;6.35;;;;;;;23.23;100.00;99765.34;5015254;28;20137;-75
2022/08/28 00:56:28;;;;;;;9.75;5.43;;;;;;;23.22;100.00;99771.81;5032820;28;20048;-75
2022/08/28 00:58:59;;;;;;;13.98;6.15;;;;;;;23.12;100.00;99771.22;5015552;28;20133;-75
2022/08/28 01:01:27;;;;;;;12.82;5.22;;;;;;;23.23;100.00;99768.06;5032929;28;20041;-75
2022/08/28 01:03:56;;;;;;;14.05;6.25;;;;;;;23.07;100.00;99769.06;5014918;28;20045;-75
2022/08/28 01:06:24;;;;;;;16.75;6.10;;;;;;;23.05;100.00;99773.00;5015089;28;20064;-75
2022/08/28 01:08:54;;;;;;;12.48;5.60;;;;;;;23.05;100.00;99776.56;5032715;28;20050;-75
2022/08/28 01:11:26;;;;;;;11.38;5.57;;;;;;;23.10;100.00;99778.72;5032850;28;20433;-75
2022/08/28 01:13:55;;;;;;;8.77;4.75;;;;;;;23.11;100.00;99769.53;5032652;28;20072;-75
2022/08/28 01:16:31;;;;;;;11.80;5.50;;;;;;;23.03;100.00;99758.72;5032708;28;20050;-75
2022/08/28 01:19:03;;;;;;;7.70;4.18;;;;;;;23.04;100.00;99774.03;5032771;28;20398;-75
2022/08/28 01:21:39;;;;;;;14.00;4.55;;;;;;;22.90;100.00;99767.53;5032874;28;20475;-74
2022/08/28 01:24:13;;;;;;;10.00;4.35;;;;;;;22.91;99.34;99762.94;5032955;28;20056;-75
2022/08/28 01:26:42;;;;;;;7.90;4.55;;;;;;;22.83;98.26;99774.69;5032507;28;20046;-75
2022/08/28 01:29:11;;;;;;;9.43;4.20;;;;;;;22.69;98.38;99770.06;5032560;28;20044;-75
2022/08/28 01:31:41;;;;;;;8.57;4.18;;;;;;;22.67;97.88;99772.09;5014606;28;20081;-75
2022/08/28 01:34:12;;;;;;;7.60;4.32;;;;;;;22.76;97.25;99788.16;5033024;28;20393;-75
2022/08/28 01:36:41;;;;;;;9.45;3.83;;;;;;;22.72;97.25;99770.53;5014811;28;20096;-75
2022/08/28 01:39:13;;;;;;;8.85;3.83;;;;;;;22.69;97.71;99773.63;5032906;28;20129;-74
2022/08/28 01:41:44;;;;;;;7.43;3.53;;;;;;;22.63;98.04;99768.06;5036300;28;20052;-75
2022/08/28 01:44:14;;;;;;;7.60;4.10;;;;;;;22.57;98.88;99777.78;5018534;28;20457;-75
2022/08/28 01:46:45;;;;;;;8.18;3.75;;;;;;;22.46;99.68;99773.59;5036418;28;20065;-75
2022/08/28 01:49:14;;;;;;;11.98;4.15;;;;;;;22.49;99.57;99775.13;5036364;28;20069;-75
2022/08/28 01:51:43;;;;;;;8.95;3.88;;;;;;;22.51;99.52;99783.94;5035943;28;20124;-75
2022/08/28 01:54:13;;;;;;;9.68;3.83;;;;;;;22.44;100.00;99782.97;5036053;28;20055;-75
2022/08/28 01:56:43;;;;;;;7.70;4.22;;;;;;;22.43;100.00;99789.44;5035514;28;20042;-75
2022/08/28 01:59:14;;;;;;;8.50;4.43;;;;;;;22.38;100.00;99791.81;5036306;28;20183;-75
2022/08/28 02:01:42;;;;;;;7.22;3.88;;;;;;;22.38;100.00;99783.69;5035938;28;20501;-75
2022/08/28 02:04:11;;;;;;;6.53;4.00;;;;;;;22.21;100.00;99780.22;5035948;28;20096;-75
2022/08/28 02:06:40;;;;;;;8.95;4.32;;;;;;;22.21;100.00;99777.50;5035572;28;20045;-75
2022/08/28 02:09:10;;;;;;;7.82;3.88;;;;;;;22.19;100.00;99777.66;5035674;28;20053;-75
2022/08/28 02:11:43;;;;;;;;;;;;;;;22.20;100.00;99773.94;5036008;28;20478;-75
2022/08/28 02:14:14;;;;;;;7.82;4.10;;;;;;;22.15;100.00;99768.19;5035815;28;19960;-75
2022/08/28 02:16:42;;;;;;;9.95;4.25;;;;;;;22.14;100.00;99761.06;5035452;28;20120;-75
2022/08/28 02:19:11;;;;;;;7.30;4.28;;;;;;;22.14;100.00;99758.34;5035628;28;20124;-75
2022/08/28 02:21:40;;;;;;;6.43;4.40;;;;;;;22.05;100.00;99755.84;5035186;28;20048;-75
2022/08/28 02:24:09;;;;;;;12.30;3.80;;;;;;;22.04;100.00;99744.13;5018057;28;20053;-75
2022/08/28 02:26:37;;;;;;;7.50;4.30;;;;;;;22.07;100.00;99737.53;5035401;28;20390;-75
2022/08/28 02:29:07;;;;;;;7.38;4.20;;;;;;;22.02;100.00;99727.19;5017784;28;20053;-74
2022/08/28 02:31:35;;;;;;;8.50;4.55;;;;;;;22.12;100.00;99721.53;5035257;28;20059;-75
2022/08/28 02:34:04;;;;;;;8.18;4.20;;;;;;;22.16;100.00;99731.84;5017478;28;20072;-75
2022/08/28 02:36:33;;;;;;;8.55;4.28;;;;;;;22.14;100.00;99733.91;5035417;28;20124;-75
2022/08/28 02:39:01;;;;;;;8.20;4.38;;;;;;;22.16;100.00;99736.44;5017345;28;20120;-75
2022/08/28 02:41:30;;;;;;;8.15;4.15;;;;;;;22.10;100.00;99743.47;5035234;28;20056;-75
2022/08/28 02:43:58;;;;;;;8.35;4.18;;;;;;;22.10;100.00;99746.19;5034819;28;20403;-75
2022/08/28 02:46:28;;;;;;;8.65;4.50;;;;;;;22.11;100.00;99750.56;5028837;28;20053;-75
2022/08/28 02:48:56;;;;;;;10.02;4.13;;;;;;;22.09;100.00;99749.88;5034772;28;20557;-75
2022/08/28 02:51:24;;;;;;;6.90;3.97;;;;;;;22.09;100.00;99747.16;5033598;28;20490;-75
2022/08/28 02:53:53;;;;;;;7.90;4.18;;;;;;;22.09;100.00;99736.31;5034761;28;20049;-75
2022/08/28 02:56:21;;;;;;;10.80;4.35;;;;;;;21.98;100.00;99744.84;5034882;28;20076;-75
2022/08/28 02:58:49;;;;;;;8.10;4.30;;;;;;;21.90;100.00;99736.72;5034518;28;20076;-75
2022/08/28 03:01:17;;;;;;;9.60;4.95;;;;;;;21.77;100.00;99741.88;5034692;28;20042;-74
2022/08/28 03:03:47;;;;;;;9.02;4.03;;;;;;;21.69;100.00;99738.19;5034784;28;20446;-75
2022/08/28 03:06:16;;;;;;;8.85;4.03;;;;;;;21.78;100.00;99732.72;5034841;28;20137;-74
2022/08/28 03:08:44;;;;;;;7.45;4.07;;;;;;;21.74;100.00;99747.69;5034531;28;20045;-74
2022/08/28 03:11:12;;;;;;;6.75;4.20;;;;;;;21.70;100.00;99758.03;5034481;28;20045;-74
2022/08/28 03:13:41;;;;;;;8.55;3.90;;;;;;;21.73;100.00;99771.25;5034259;28;20052;-74
2022/08/28 03:16:10;;;;;;;8.30;4.28;;;;;;;21.72;100.00;99788.56;5034574;28;20172;-74
2022/08/28 03:18:38;;;;;;;9.90;3.90;;;;;;;21.77;100.00;99799.72;5034322;28;20490;-75
2022/08/28 03:21:08;;;;;;;10.02;4.75;;;;;;;21.80;100.00;99782.25;5034612;28;20041;-75
2022/08/28 03:23:36;;;;;;;7.97;4.85;;;;;;;21.83;100.00;99771.91;5034525;28;20103;-75
2022/08/28 03:26:06;;;;;;;10.02;4.55;;;;;;;21.77;100.00;99769.88;5034357;28;20049;-74
2022/08/28 03:28:38;;;;;;;9.63;4.43;;;;;;;21.70;100.00;99774.31;5033281;28;20469;-74
2022/08/28 03:31:16;;;;;;;7.60;4.18;;;;;;;21.66;100.00;99779.25;5034555;28;20052;-75
2022/08/28 03:33:46;;;;;;;8.77;4.22;;;;;;;21.51;100.00;99775.56;5033966;28;20480;-75
2022/08/28 03:36:20;;;;;;;7.13;4.10;;;;;;;21.49;100.00;99772.19;5034021;28;20045;-75
2022/08/28 03:38:48;;;;;;;7.40;4.32;;;;;;;21.42;100.00;99773.88;5033763;28;20073;-75
2022/08/28 03:41:19;;;;;;;10.45;3.97;;;;;;;21.32;100.00;99770.50;5034242;28;20116;-75
2022/08/28 03:43:47;;;;;;;8.32;3.90;;;;;;;21.35;100.00;99770.19;5032739;28;20049;-74
2022/08/28 03:46:18;;;;;;;8.10;4.70;;;;;;;21.40;100.00;99778.66;5033907;28;20465;-75
2022/08/28 03:48:46;;;;;;;8.48;4.50;;;;;;;21.54;100.00;99780.66;5033975;28;20046;-75
2022/08/28 03:51:18;;;;;;;8.32;4.13;;;;;;;21.49;100.00;99780.31;5033811;28;20401;-75
2022/08/28 03:53:53;;;;;;;7.90;4.30;;;;;;;21.54;100.00;99786.09;5033838;28;20071;-75
2022/08/28 03:56:24;;;;;;;9.25;4.20;;;;;;;21.50;100.00;99779.28;5033947;28;20048;-75
2022/08/28 03:58:56;;;;;;;6.55;3.90;;;;;;;21.50;100.00;99784.72;5033425;28;20076;-75
2022/08/28 04:01:25;;;;;;;7.72;4.45;;;;;;;21.50;100.00;99786.59;5033912;28;20045;-75
2022/08/28 04:03:53;;;;;;;7.57;4.38;;;;;;;21.47;100.00;99782.38;5032718;28;20041;-74
2022/08/28 04:06:23;;;;;;;8.60;4.28;;;;;;;21.33;100.00;99774.94;5033804;28;20451;-75
2022/08/28 04:08:51;;;;;;;8.52;4.68;;;;;;;21.44;100.00;99780.00;5033642;28;20487;-75
2022/08/28 04:11:19;;;;;;;7.75;4.22;;;;;;;21.34;100.00;99784.78;5033676;28;21053;-74
2022/08/28 04:13:47;;;;;;;8.18;4.40;;;;;;;21.39;100.00;99779.66;5033345;28;20402;-75
2022/08/28 04:16:18;;;;;;;6.47;4.13;;;;;;;21.28;100.00;99774.59;5033375;28;20478;-75
2022/08/28 04:18:48;;;;;;;8.77;4.75;;;;;;;21.25;100.00;99774.94;5033408;28;20367;-75
2022/08/28 04:21:20;;;;;;;7.82;4.72;;;;;;;21.28;100.00;99770.03;5033760;28;20045;-75
2022/08/28 04:23:50;;;;;;;10.35;4.28;;;;;;;21.22;100.00;99769.81;5033725;28;20462;-75
2022/08/28 04:26:19;;;;;;;8.88;4.25;;;;;;;21.21;100.00;99778.97;5033305;28;20121;-75
2022/08/28 04:28:49;;;;;;;9.57;4.70;;;;;;;21.26;100.00;99782.03;5032923;28;20045;-74
2022/08/28 04:31:19;;;;;;;5.85;4.05;;;;;;;21.35;100.00;99772.91;5033569;28;20045;-75
2022/08/28 04:34:00;;;;;;;8.68;4.57;;;;;;;21.43;100.00;99781.88;5033158;28;20042;-75
2022/08/28 04:36:29;;;;;;;6.10;4.13;;;;;;;21.39;100.00;99782.38;5015530;28;20045;-75
2022/08/28 04:38:58;;;;;;;7.50;4.60;;;;;;;21.40;100.00;99778.66;5032867;28;20046;-75
2022/08/28 04:41:28;;;;;;;9.25;4.70;;;;;;;21.34;100.00;99782.06;5032943;28;20156;-75
2022/08/28 04:43:57;;;;;;;8.57;4.82;;;;;;;21.45;100.00;99781.69;5033090;28;20457;-75
2022/08/28 04:46:26;;;;;;;8.95;4.80;;;;;;;21.51;100.00;99777.41;5032830;28;20053;-75
2022/08/28 04:48:58;;;;;;;9.10;4.60;;;;;;;21.51;100.00;99780.97;5032909;28;20053;-75
2022/08/28 04:51:27;;;;;;;9.20;5.05;;;;;;;21.56;100.00;99783.19;5033034;28;20527;-75
2022/08/28 04:53:56;;;;;;;8.57;4.40;;;;;;;21.67;100.00;99791.78;5032633;28;20426;-75
2022/08/28 04:56:26;;;;;;;8.75;5.47;;;;;;;21.74;100.00;99785.69;5033063;28;20080;-75
2022/08/28 04:58:54;;;;;;;7.43;4.57;;;;;;;21.76;100.00;99780.91;5032858;28;20549;-75
2022/08/28 05:01:24;;;;;;;8.23;5.15;;;;;;;21.81;100.00;99797.50;5015279;28;20100;-75
2022/08/28 05:03:56;;;;;;;8.23;4.95;;;;;;;22.04;100.00;99800.31;5032730;28;20563;-75
2022/08/28 05:06:26;;;;;;;13.20;5.10;;;;;;;22.09;100.00;99806.06;5032773;28;20076;-75
2022/08/28 05:08:56;;;;;;;8.05;4.88;;;;;;;22.31;100.00;99804.47;5032757;28;20056;-74
2022/08/28 05:11:27;;;;;;;9.15;4.72;;;;;;;22.49;100.00;99811.31;5032926;28;20048;-74
2022/08/28 05:14:03;;;;;;;10.70;4.63;;;;;;;22.63;100.00;99804.22;5016774;28;20049;-75
2022/08/28 05:16:33;;;;;;;10.10;4.53;;;;;;;22.75;100.00;99802.78;5018901;28;20054;-75
2022/08/28 05:19:03;;;;;;;7.93;4.68;;;;;;;22.80;100.00;99804.97;5036280;28;20060;-75
2022/08/28 05:21:31;;;;;;;9.35;4.55;;;;;;;22.87;100.00;99805.09;5036711;28;20494;-75
2022/08/28 05:24:00;;;;;;;8.85;4.72;;;;;;;22.78;100.00;99810.59;5036605;28;20414;-75
2022/08/28 05:26:29;;;;;;;9.38;4.38;;;;;;;22.88;100.00;99807.66;5019025;28;20050;-74
2022/08/28 05:28:59;;;;;;;7.05;4.18;;;;;;;22.84;100.00;99800.88;5036275;28;20057;-75
2022/08/28 05:31:28;;;;;;;8.32;4.65;;;;;;;22.98;100.00;99812.84;5036458;28;20111;-75
2022/08/28 05:33:57;;;;;;;9.00;4.68;;;;;;;23.10;100.00;99816.81;5036425;28;20041;-75
2022/08/28 05:36:27;;;;;;;6.75;4.70;;;;;;;23.30;98.87;99819.88;5036341;28;20451;-75
2022/08/28 05:39:01;;;;;;;7.75;4.22;;;;;;;23.13;98.92;99821.88;5036109;28;20446;-75
2022/08/28 05:41:32;;;;;;;9.20;4.50;;;;;;;23.34;97.67;99824.72;5036169;28;20482;-75
2022/08/28 05:44:02;;;;;;;7.32;4.07;;;;;;;23.51;95.71;99819.97;5036009;28;20046;-75
2022/08/28 05:46:30;;;;;;;7.75;4.07;;;;;;;23.44;95.13;99813.59;5036429;28;20132;-75
2022/08/28 05:48:59;;;;;;;8.98;4.28;;;;;;;23.70;92.30;99819.47;5035916;28;20042;-75
2022/08/28 05:51:28;;;;;;;7.88;3.83;;;;;;;23.52;93.21;99820.81;5036220;28;20527;-75
2022/08/28 05:53:58;;;;;;;5.32;3.92;;;;;;;23.42;94.34;99816.50;5035869;28;20041;-75
2022/08/28 05:56:29;;;;;;;8.02;4.60;;;;;;;23.75;91.01;99804.47;5017986;28;20049;-74
2022/08/28 05:59:00;;;;;;;8.38;4.10;;;;;;;23.43;92.05;99814.63;5035874;28;20046;-74
2022/08/28 06:01:30;;;;;;;7.60;3.97;;;;;;;23.92;89.62;99814.94;5035991;28;20538;-76
2022/08/28 06:04:00;;;;;;;7.50;4.00;;;;;;;23.82;89.71;99813.53;5017903;28;20077;-76
2022/08/28 06:06:33;;;;;;;11.70;4.25;;;;;;;23.89;88.92;99817.22;5035895;28;20045;-76
2022/08/28 06:09:04;;;;;;;8.03;4.10;;;;;;;24.59;85.21;99803.00;5018028;28;20115;-76
2022/08/28 06:11:32;;;;;;;8.40;4.10;;;;;;;25.13;81.16;99807.13;5035909;28;20075;-74
2022/08/28 06:14:05;;;;;;;7.95;4.13;;;;;;;24.99;81.37;99806.94;5034812;28;20176;-74
2022/08/28 06:16:34;;;;;;;8.23;4.10;;;;;;;25.29;78.95;99807.69;5035177;28;20402;-74
2022/08/28 06:19:02;;;;;;;8.07;4.18;;;;;;;25.11;78.82;99802.69;5035070;28;20120;-74
2022/08/28 06:21:32;;;;;;;8.43;4.10;;;;;;;25.50;76.60;99795.00;5035164;28;20037;-74
2022/08/28 06:24:00;;;;;;;9.20;4.00;;;;;;;25.90;73.44;99798.84;5035283;28;20460;-74
2022/08/28 06:26:28;;;;;;;6.75;4.20;;;;;;;26.47;71.12;99798.47;5034868;28;20073;-74
2022/08/28 06:28:59;;;;;;;7.85;4.00;;;;;;;27.17;66.62;99799.00;5034857;28;20406;-75
2022/08/28 06:31:30;;;;;;;6.25;3.92;;;;;;;27.71;63.79;99797.09;5035272;28;20044;-74
2022/08/28 06:34:01;;;;;;;;;;;;;;;27.07;63.83;99799.44;5035618;28;20049;-75
2022/08/28 06:36:31;;;;;;;10.07;4.18;;;;;;;27.25;63.16;99798.81;5035352;28;19921;-74
2022/08/28 06:39:00;;;;;;;9.02;3.97;;;;;;;28.08;60.54;99798.22;5034778;28;20401;-74
2022/08/28 06:41:30;;;;;;;7.63;3.55;;;;;;;28.14;59.76;99789.13;5035234;28;20069;-74
2022/08/28 06:43:59;;;;;;;9.25;3.90;;;;;;;28.21;58.07;99784.47;5035138;28;20124;-74
2022/08/28 06:46:32;;;;;;;8.55;3.75;;;;;;;27.77;57.75;99794.31;5035364;28;20065;-74
2022/08/28 06:49:02;;;;;;;10.67;3.73;;;;;;;27.27;60.81;99790.38;5035114;28;20046;-74
2022/08/28 06:51:30;;;;;;;7.38;3.67;;;;;;;27.61;59.70;99789.28;5035370;28;20132;-75
2022/08/28 06:53:58;;;;;;;5.72;3.78;;;;;;;27.72;57.66;99798.78;5034673;28;20379;-76
2022/08/28 06:56:27;;;;;;;9.20;3.50;;;;;;;28.37;56.64;99797.69;5034767;28;20045;-75
2022/08/28 06:58:57;;;;;;;12.00;4.00;;;;;;;28.56;56.64;99806.03;5034534;28;20068;-76
2022/08/28 07:01:27;;;;;;;7.22;3.60;;;;;;;27.74;60.38;99805.72;5017491;28;20405;-75
2022/08/28 07:04:00;;;;;;;8.43;3.67;;;;;;;28.05;56.17;99812.38;5034960;28;20545;-75
2022/08/28 07:06:32;;;;;;;10.87;3.57;;;;;;;27.62;57.96;99808.25;5034941;28;20065;-75
2022/08/28 07:09:01;;;;;;;6.97;3.77;;;;;;;27.59;59.82;99813.28;5016706;28;20050;-75
2022/08/28 07:11:32;;;;;;;7.15;3.50;;;;;;;27.83;59.25;99807.19;5034706;28;20045;-75
2022/08/28 07:14:01;;;;;;;8.07;3.80;;;;;;;27.64;59.47;99813.50;5034560;28;20060;-75
2022/08/28 07:16:31;;;;;;;8.95;4.40;;;;;;;27.67;59.47;99821.31;5016994;28;20410;-75
2022/08/28 07:19:03;;;;;;;7.93;3.67;;;;;;;27.84;58.39;99816.22;5016671;28;20145;-75
2022/08/28 07:21:33;;;;;;;9.65;3.83;;;;;;;27.98;54.96;99823.34;5034382;28;20044;-75
2022/08/28 07:24:06;;;;;;;8.65;3.72;;;;;;;28.05;55.34;99831.56;5034146;28;20045;-75
2022/08/28 07:26:36;;;;;;;10.90;3.92;;;;;;;27.74;56.61;99830.38;5034406;28;20046;-75
2022/08/28 07:29:06;;;;;;;8.00;4.32;;;;;;;27.95;55.34;99835.59;5034028;28;20045;-75
2022/08/28 07:31:40;;;;;;;6.57;4.13;;;;;;;28.01;56.32;99833.91;5034307;28;20046;-75
2022/08/28 07:34:10;;;;;;;6.68;3.60;;;;;;;28.07;54.24;99834.91;5034013;28;20437;-75
2022/08/28 07:36:39;;;;;;;7.75;3.95;;;;;;;27.66;56.07;99836.09;5033877;28;20072;-75
2022/08/28 07:39:09;;;;;;;11.00;4.15;;;;;;;27.69;57.11;99832.91;5033563;28;20052;-75
2022/08/28 07:41:41;;;;;;;8.45;4.00;;;;;;;27.69;57.31;99834.81;5016303;28;20099;-75
2022/08/28 07:47:01;;;;;;;8.55;3.90;;;;;;;27.60;57.76;99832.28;5031827;28;20111;-75
2022/08/28 07:49:32;;;;;;;7.88;3.53;;;;;;;27.61;57.49;99833.97;5034031;28;20048;-75
2022/08/28 07:52:01;;;;;;;8.15;3.67;;;;;;;27.37;57.86;99831.88;5033803;28;20050;-75
2022/08/28 07:54:29;;;;;;;9.60;3.83;;;;;;;27.32;59.02;99834.41;5032693;28;20049;-75
2022/08/28 07:56:57;;;;;;;11.48;4.18;;;;;;;27.24;59.63;99835.47;5033648;28;20572;-75
2022/08/28 07:59:25;;;;;;;10.30;3.95;;;;;;;27.32;59.96;99829.78;5034142;28;20482;-75
2022/08/28 08:01:56;;;;;;;7.85;3.50;;;;;;;27.56;58.46;99830.16;5034636;28;20435;-75
2022/08/28 08:04:25;;;;;;;9.15;3.70;;;;;;;27.69;55.99;99830.16;5033810;28;20077;-75
2022/08/28 08:06:54;;;;;;;6.25;3.63;;;;;;;27.44;57.82;99829.97;5033776;28;20077;-75
2022/08/28 08:09:26;;;;;;;7.30;4.00;;;;;;;27.45;56.86;99828.06;5033833;28;20485;-75
2022/08/28 08:11:56;;;;;;;8.35;4.05;;;;;;;27.23;58.15;99836.50;5033799;28;20291;-75
2022/08/28 08:14:24;;;;;;;6.75;3.80;;;;;;;26.99;59.82;99834.34;5032413;28;20061;-75
2022/08/28 08:16:53;;;;;;;7.90;4.13;;;;;;;27.07;59.76;99836.91;5032176;28;20054;-75
2022/08/28 08:19:21;;;;;;;8.32;4.18;;;;;;;26.88;62.87;99837.69;5032133;28;20144;-75
2022/08/28 08:21:51;;;;;;;8.00;4.18;;;;;;;27.10;62.91;99847.44;5033355;28;20092;-75
2022/08/28 08:24:24;;;;;;;9.23;4.22;;;;;;;27.18;62.76;99844.50;5033161;28;20092;-75
2022/08/28 08:26:55;;;;;;;11.18;4.57;;;;;;;27.52;59.25;99845.34;5033572;28;20445;-75
2022/08/28 08:29:30;;;;;;;8.10;4.10;;;;;;;27.33;60.41;99850.63;5033804;28;20096;-75
2022/08/28 08:32:03;;;;;;;8.77;4.10;;;;;;;27.29;61.13;99846.59;5032308;28;20473;-75
2022/08/28 08:34:35;;;;;;;8.20;4.35;;;;;;;27.62;59.34;99851.25;5032180;28;20048;-75
2022/08/28 08:37:04;;;;;;;7.30;4.03;;;;;;;27.70;58.62;99858.41;5033449;28;20048;-76
2022/08/28 08:39:35;;;;;;;7.07;4.10;;;;;;;27.72;57.80;99851.69;5033464;28;20042;-75
2022/08/28 08:42:21;;;;;;;12.98;4.00;;;;;;;27.95;58.75;99863.00;5033174;28;20136;-75
2022/08/28 08:44:50;;;;;;;10.45;4.03;;;;;;;27.76;57.36;99855.66;5033248;28;20124;-75
2022/08/28 08:47:22;;;;;;;8.98;4.40;;;;;;;27.71;58.55;99854.63;5032876;28;20045;-75
2022/08/28 08:49:54;;;;;;;7.03;4.20;;;;;;;27.95;57.45;99860.25;5031900;28;20045;-75
2022/08/28 08:52:34;;;;;;;7.65;4.03;;;;;;;27.89;58.09;99855.66;5033051;28;20045;-75
2022/08/28 08:55:26;;;;;;;8.75;3.90;;;;;;;28.11;56.33;99856.22;5032817;28;20091;-76
2022/08/28 08:58:01;;;;;;;7.70;4.13;;;;;;;28.34;55.61;99860.38;5033299;28;20495;-75
2022/08/28 09:00:33;;;;;;;5.90;3.67;;;;;;;28.24;55.78;99860.81;5033156;28;20426;-75
2022/08/28 09:03:06;;;;;;;7.03;3.83;;;;;;;28.02;56.11;99860.25;5032975;28;20061;-75
2022/08/28 09:05:47;;;;;;;8.40;4.53;;;;;;;28.06;56.25;99863.41;5033075;28;20038;-75
2022/08/28 09:08:23;;;;;;;7.72;3.95;;;;;;;28.32;54.39;99857.84;5031686;28;20052;-75
2022/08/28 09:11:00;;;;;;;8.80;3.80;;;;;;;28.55;53.87;99851.84;5032908;28;20100;-75
2022/08/28 09:13:38;;;;;;;7.70;3.85;;;;;;;28.61;53.37;99850.97;5031946;28;20140;-74
2022/08/28 09:16:16;;;;;;;8.57;4.13;;;;;;;28.41;55.25;99859.31;5032750;28;20491;-75
2022/08/28 09:18:47;;;;;;;12.73;4.28;;;;;;;28.73;54.02;99849.22;5033114;28;20041;-75
2022/08/28 09:21:25;;;;;;;6.53;3.90;;;;;;;28.80;52.23;99857.41;5032729;28;20128;-75
2022/08/28 09:24:01;;;;;;;6.18;4.00;;;;;;;28.80;52.21;99860.16;5032930;28;20050;-75
2022/08/28 09:26:39;;;;;;;8.52;3.80;;;;;;;28.92;52.19;99868.56;5031509;28;20049;-75
2022/08/28 09:29:16;;;;;;;6.07;3.92;;;;;;;28.82;52.77;99866.25;5031383;28;20132;-75
2022/08/28 09:31:44;;;;;;;8.80;4.45;;;;;;;28.70;53.57;99865.28;5033075;28;20046;-75
2022/08/28 09:34:26;;;;;;;9.77;4.13;;;;;;;28.68;53.42;99861.91;5032447;28;20487;-74
2022/08/28 09:36:55;;;;;;;8.27;3.97;;;;;;;28.56;52.70;99869.97;5032785;28;20045;-75
2022/08/28 09:39:26;;;;;;;8.68;4.10;;;;;;;28.40;51.99;99871.34;5031210;28;20050;-75
2022/08/28 09:44:55;;;;;;;7.32;4.18;;;;;;;28.47;52.20;99874.03;5031126;28;20470;-75
2022/08/28 09:47:47;;;;;;;9.00;4.25;;;;;;;28.50;51.49;99877.19;5032504;28;20052;-75
2022/08/28 09:50:23;;;;;;;9.57;4.43;;;;;;;28.61;50.71;99877.56;5032514;28;20045;-75
2022/08/28 09:52:53;;;;;;;8.57;4.28;;;;;;;28.69;49.93;99869.94;5032513;28;20450;-75
2022/08/28 09:55:40;;;;;;;8.48;4.40;;;;;;;28.64;49.79;99868.88;5031197;28;20509;-75
2022/08/28 09:58:10;;;;;;;8.38;4.38;;;;;;;28.57;49.05;99863.47;5032032;28;20095;-76
2022/08/28 10:00:51;;;;;;;11.75;4.32;;;;;;;28.65;48.12;99862.34;5033536;28;20041;-75
2022/08/28 10:03:25;;;;;;;9.25;4.40;;;;;;;28.71;48.34;99866.97;5035824;28;20045;-75
2022/08/28 10:06:03;;;;;;;6.63;4.40;;;;;;;28.84;48.13;99861.38;5035928;28;20045;-75
2022/08/28 10:08:49;;;;;;;10.18;4.30;;;;;;;29.05;47.75;99857.50;5034483;28;20053;-75
2022/08/28 10:11:22;;;;;;;6.93;4.10;;;;;;;29.16;47.19;99856.78;5035584;28;20120;-75
2022/08/28 10:14:02;;;;;;;8.63;4.30;;;;;;;29.17;46.54;99857.63;5034735;28;20509;-75
2022/08/28 10:16:40;;;;;;;7.90;3.90;;;;;;;29.05;46.08;99858.34;5035986;28;20037;-75
2022/08/28 10:19:20;;;;;;;7.38;4.50;;;;;;;29.10;45.83;99860.41;5035462;28;20052;-75
2022/08/28 10:21:56;;;;;;;6.45;4.38;;;;;;;29.18;45.71;99859.31;5035987;28;20127;-75
2022/08/28 10:24:52;;;;;;;8.00;4.35;;;;;;;29.18;46.22;99851.06;5035589;28;20045;-75
2022/08/28 10:27:38;;;;;;;8.40;4.55;;;;;;;29.32;45.85;99852.63;5034115;28;20046;-75
2022/08/28 10:30:13;;;;;;;8.95;4.35;;;;;;;29.16;44.96;99854.03;5035340;28;20045;-76
2022/08/28 10:33:23;;;;;;;9.40;4.75;;;;;;;28.98;45.93;99856.69;5035699;28;20480;-75
2022/08/28 10:35:56;;;;;;;8.27;4.30;;;;;;;29.03;45.35;99854.97;4974191;28;20043;-75
2022/08/28 10:38:35;;;;;;;9.35;4.75;;;;;;;29.12;45.29;99849.19;5028965;28;20057;-75
2022/08/28 10:41:08;;;;;;;7.82;4.35;;;;;;;29.35;45.42;99841.22;5033638;28;20433;-76
2022/08/28 10:43:43;;;;;;;9.50;4.40;;;;;;;29.23;44.87;99843.81;5035132;28;20100;-75
2022/08/28 10:46:16;;;;;;;7.43;4.03;;;;;;;29.36;45.41;99845.63;5035082;28;20061;-75
2022/08/28 10:48:48;;;;;;;8.63;4.40;;;;;;;29.49;45.17;99847.44;5035144;28;20052;-75
2022/08/28 10:51:23;;;;;;;8.63;4.32;;;;;;;29.46;45.29;99847.88;5017217;28;20086;-75
2022/08/28 10:54:07;;;;;;;7.82;4.40;;;;;;;29.47;44.96;99839.41;5017466;28;20045;-75
2022/08/28 10:56:40;;;;;;;7.85;4.47;;;;;;;29.53;45.47;99838.53;5035169;28;20045;-74
2022/08/28 10:59:08;;;;;;;7.18;4.38;;;;;;;29.44;45.45;99831.63;5034455;28;20544;-75
2022/08/28 11:01:42;;;;;;;12.43;4.50;;;;;;;29.41;44.84;99834.81;5035086;28;20045;-75
2022/08/28 11:04:17;;;;;;;10.38;4.82;;;;;;;29.47;44.97;99827.56;5016939;28;20140;-75
2022/08/28 11:06:57;;;;;;;8.93;4.45;;;;;;;29.54;45.65;99833.88;5034780;28;20136;-75
2022/08/28 11:09:32;;;;;;;7.75;4.47;;;;;;;29.75;44.49;99830.72;5016946;28;20105;-75
2022/08/28 11:12:03;;;;;;;8.10;4.07;;;;;;;29.81;45.04;99834.44;5034471;28;20467;-75
2022/08/28 11:14:34;;;;;;;8.75;4.80;;;;;;;29.95;44.35;99836.00;5034487;28;20046;-75
2022/08/28 11:17:39;;;;;;;7.93;4.15;;;;;;;30.13;43.69;99835.19;5016813;28;20414;-75
2022/08/28 11:20:15;;;;;;;9.32;4.35;;;;;;;30.36;43.24;99842.72;5034720;28;20045;-75
2022/08/28 11:22:48;;;;;;;6.90;4.43;;;;;;;30.34;42.99;99845.72;5034727;28;20044;-74
2022/08/28 11:25:23;;;;;;;7.70;4.22;;;;;;;30.10;42.82;99833.72;5034249;28;20045;-75
2022/08/28 11:28:17;;;;;;;12.40;4.03;;;;;;;30.37;42.49;99833.41;5034678;28;20045;-75
2022/08/28 11:30:46;;;;;;;7.45;4.15;;;;;;;30.23;42.17;99829.16;5034288;28;20494;-75
2022/08/28 11:33:39;;;;;;;8.50;4.00;;;;;;;30.35;42.19;99830.06;5016264;28;20384;-75
2022/08/28 11:36:11;;;;;;;8.70;4.00;;;;;;;30.53;41.05;99830.03;5016774;28;20057;-75
2022/08/28 11:39:20;;;;;;;6.13;4.07;;;;;;;30.81;40.64;99828.59;5016707;28;20509;-74
2022/08/28 11:42:25;;;;;;;7.55;4.03;;;;;;;30.82;41.23;99830.28;5034331;28;20049;-74
2022/08/28 11:44:53;;;;;;;6.05;3.80;;;;;;;30.86;41.16;99825.97;5021956;28;20050;-75
2022/08/28 11:47:50;;;;;;;6.45;3.75;;;;;;;30.65;40.55;99822.69;5033915;28;20049;-75
2022/08/28 11:50:25;;;;;;;6.93;3.70;;;;;;;30.70;40.72;99822.00;5033746;28;20044;-75
2022/08/28 11:53:23;;;;;;;7.65;4.07;;;;;;;30.79;40.78;99820.59;5016584;28;20061;-74
2022/08/28 11:56:08;;;;;;;9.00;4.00;;;;;;;30.78;40.52;99811.47;5016201;28;20045;-75
2022/08/28 11:58:45;;;;;;;6.15;3.72;;;;;;;30.73;40.63;99811.34;5033718;28;20050;-75
2022/08/28 12:01:25;;;;;;;8.18;3.67;;;;;;;30.91;40.74;99806.84;5033842;28;20038;-75